sensor_id;sensor_type;location;lat;lon;timestamp;pressure;altitude;pressure_sealevel;temperature;humidity
59063;BME280;44851;45.648;9.004;2023-02-13T05:24:54;101041.34;;;2.24;50.17
59063;BME280;44851;45.648;9.004;2023-02-13T18:28:54;100888.81;;;8.76;44.36
59063;BME280;44851;45.648;9.004;2023-02-13T18:31:20;100878.22;;;8.64;44.61
59063;BME280;44851;45.648;9.004;2023-02-13T18:33:46;100880.41;;;8.71;44.53
59063;BME280;44851;45.648;9.004;2023-02-13T18:36:11;100881.50;;;8.67;44.28
59063;BME280;44851;45.648;9.004;2023-02-13T18:38:37;100873.97;;;8.45;44.95
59063;BME280;44851;45.648;9.004;2023-02-13T18:41:03;100887.75;;;8.47;45.19
59063;BME280;44851;45.648;9.004;2023-02-13T18:43:28;100879.59;;;8.38;45.05
59063;BME280;44851;45.648;9.004;2023-02-13T18:45:54;100885.94;;;8.32;45.37
59063;BME280;44851;45.648;9.004;2023-02-13T18:48:19;100877.38;;;8.30;45.45
59063;BME280;44851;45.648;9.004;2023-02-13T18:50:45;100875.75;;;8.45;45.25
59063;BME280;44851;45.648;9.004;2023-02-13T18:53:10;100878.81;;;8.36;45.08
59063;BME280;44851;45.648;9.004;2023-02-13T18:55:36;100879.66;;;8.36;45.53
59063;BME280;44851;45.648;9.004;2023-02-13T18:58:02;100880.97;;;8.28;45.70
59063;BME280;44851;45.648;9.004;2023-02-13T19:00:28;100876.59;;;8.45;45.72
59063;BME280;44851;45.648;9.004;2023-02-13T19:02:54;100880.50;;;8.37;45.54
59063;BME280;44851;45.648;9.004;2023-02-13T19:05:21;100890.97;;;8.35;45.70
59063;BME280;44851;45.648;9.004;2023-02-13T19:07:47;100890.09;;;8.52;45.96
59063;BME280;44851;45.648;9.004;2023-02-13T19:10:12;100892.09;;;8.47;45.49
59063;BME280;44851;45.648;9.004;2023-02-13T19:12:40;100890.09;;;8.52;45.56
59063;BME280;44851;45.648;9.004;2023-02-13T19:15:06;100896.06;;;8.54;45.45
59063;BME280;44851;45.648;9.004;2023-02-13T19:17:33;100899.28;;;8.42;45.77
59063;BME280;44851;45.648;9.004;2023-02-13T19:19:59;100908.63;;;8.29;45.70
59063;BME280;44851;45.648;9.004;2023-02-13T19:22:24;100902.59;;;8.28;45.93
59063;BME280;44851;45.648;9.004;2023-02-13T19:24:50;100907.94;;;8.25;45.72
59063;BME280;44851;45.648;9.004;2023-02-13T19:27:16;100901.69;;;8.12;45.68
59063;BME280;44851;45.648;9.004;2023-02-13T19:29:42;100904.44;;;8.09;46.12
59063;BME280;44851;45.648;9.004;2023-02-13T19:32:08;100910.47;;;7.92;45.81
59063;BME280;44851;45.648;9.004;2023-02-13T19:34:33;100918.56;;;7.86;45.92
59063;BME280;44851;45.648;9.004;2023-02-13T19:36:59;100925.06;;;7.94;46.41
59063;BME280;44851;45.648;9.004;2023-02-13T19:39:25;100913.38;;;8.03;46.33
59063;BME280;44851;45.648;9.004;2023-02-13T19:41:51;100925.38;;;8.06;45.77
59063;BME280;44851;45.648;9.004;2023-02-13T19:44:17;100919.41;;;8.04;46.25
59063;BME280;44851;45.648;9.004;2023-02-13T19:46:43;100924.50;;;7.88;46.44
59063;BME280;44851;45.648;9.004;2023-02-13T19:49:09;100931.06;;;7.78;46.32
59063;BME280;44851;45.648;9.004;2023-02-13T19:51:35;100930.25;;;7.58;46.94
59063;BME280;44851;45.648;9.004;2023-02-13T19:54:06;100930.28;;;7.76;46.51
59063;BME280;44851;45.648;9.004;2023-02-13T19:56:34;100935.34;;;7.79;46.60
59063;BME280;44851;45.648;9.004;2023-02-13T19:59:01;100929.81;;;7.67;46.64
59063;BME280;44851;45.648;9.004;2023-02-13T20:01:28;100938.31;;;7.52;46.81
59063;BME280;44851;45.648;9.004;2023-02-13T20:03:55;100943.72;;;7.47;46.85
59063;BME280;44851;45.648;9.004;2023-02-13T20:06:25;100937.19;;;7.39;46.90
59063;BME280;44851;45.648;9.004;2023-02-13T20:08:56;100941.63;;;7.37;47.11
59063;BME280;44851;45.648;9.004;2023-02-13T20:11:25;100944.69;;;7.45;47.02
59063;BME280;44851;45.648;9.004;2023-02-13T20:13:55;100944.00;;;7.23;47.45
59063;BME280;44851;45.648;9.004;2023-02-13T20:16:22;100943.38;;;7.17;47.77
59063;BME280;44851;45.648;9.004;2023-02-13T20:18:49;100940.72;;;7.00;47.82
59063;BME280;44851;45.648;9.004;2023-02-13T20:21:15;100941.50;;;6.82;48.20
59063;BME280;44851;45.648;9.004;2023-02-13T20:23:47;100946.16;;;6.94;48.07
59063;BME280;44851;45.648;9.004;2023-02-13T20:26:14;100949.19;;;7.04;47.95
59063;BME280;44851;45.648;9.004;2023-02-13T20:28:42;100947.28;;;7.07;47.98
59063;BME280;44851;45.648;9.004;2023-02-13T20:31:17;100944.25;;;6.98;47.50
59063;BME280;44851;45.648;9.004;2023-02-13T20:33:44;100953.47;;;7.05;47.84
59063;BME280;44851;45.648;9.004;2023-02-13T20:36:17;100946.22;;;6.92;47.45
59063;BME280;44851;45.648;9.004;2023-02-13T20:38:43;100952.94;;;6.78;48.27
59063;BME280;44851;45.648;9.004;2023-02-13T20:41:13;100954.34;;;6.85;48.19
59063;BME280;44851;45.648;9.004;2023-02-13T20:43:39;100955.38;;;6.81;47.77
59063;BME280;44851;45.648;9.004;2023-02-13T20:46:06;100949.50;;;6.77;48.28
59063;BME280;44851;45.648;9.004;2023-02-13T20:48:37;100961.50;;;6.59;47.85
59063;BME280;44851;45.648;9.004;2023-02-13T20:51:06;100963.25;;;6.59;48.32
59063;BME280;44851;45.648;9.004;2023-02-13T20:53:33;100968.16;;;6.45;48.77
59063;BME280;44851;45.648;9.004;2023-02-13T20:56:08;100963.59;;;6.51;48.64
59063;BME280;44851;45.648;9.004;2023-02-13T20:58:36;100967.47;;;6.41;48.90
59063;BME280;44851;45.648;9.004;2023-02-13T21:01:09;100967.13;;;6.28;48.84
59063;BME280;44851;45.648;9.004;2023-02-13T21:03:35;100970.13;;;6.19;48.62
59063;BME280;44851;45.648;9.004;2023-02-13T21:06:01;100974.97;;;6.27;48.85
59063;BME280;44851;45.648;9.004;2023-02-13T21:08:27;100972.28;;;6.28;48.53
59063;BME280;44851;45.648;9.004;2023-02-13T21:11:02;100964.59;;;6.27;48.40
59063;BME280;44851;45.648;9.004;2023-02-13T21:13:29;100967.78;;;6.13;48.53
59063;BME280;44851;45.648;9.004;2023-02-13T21:16:20;100965.84;;;5.96;47.92
59063;BME280;44851;45.648;9.004;2023-02-13T21:18:52;100960.66;;;5.96;49.62
59063;BME280;44851;45.648;9.004;2023-02-13T21:21:19;100956.63;;;6.11;49.36
59063;BME280;44851;45.648;9.004;2023-02-13T21:23:45;100957.28;;;6.16;49.54
59063;BME280;44851;45.648;9.004;2023-02-13T21:26:16;100960.19;;;6.08;48.88
59063;BME280;44851;45.648;9.004;2023-02-13T21:28:44;100958.63;;;6.04;49.49
59063;BME280;44851;45.648;9.004;2023-02-13T21:31:18;100961.41;;;6.00;49.55
59063;BME280;44851;45.648;9.004;2023-02-13T21:33:48;100962.94;;;5.82;50.39
59063;BME280;44851;45.648;9.004;2023-02-13T21:36:14;100969.06;;;5.79;50.26
59063;BME280;44851;45.648;9.004;2023-02-13T21:38:40;100960.66;;;5.74;50.26
59063;BME280;44851;45.648;9.004;2023-02-13T21:41:12;100967.66;;;5.94;50.23
59063;BME280;44851;45.648;9.004;2023-02-13T21:43:39;100969.81;;;6.05;50.04
59063;BME280;44851;45.648;9.004;2023-02-13T21:46:12;100961.97;;;6.06;49.94
59063;BME280;44851;45.648;9.004;2023-02-13T21:48:38;100965.38;;;6.08;49.90
59063;BME280;44851;45.648;9.004;2023-02-13T21:51:24;100962.59;;;5.91;50.20
59063;BME280;44851;45.648;9.004;2023-02-13T21:53:51;100970.56;;;5.85;50.21
59063;BME280;44851;45.648;9.004;2023-02-13T21:56:25;100971.72;;;5.78;50.24
59063;BME280;44851;45.648;9.004;2023-02-13T21:58:52;100958.13;;;5.73;50.47
59063;BME280;44851;45.648;9.004;2023-02-13T22:01:38;100967.25;;;5.59;49.94
59063;BME280;44851;45.648;9.004;2023-02-13T22:04:06;100959.81;;;5.52;50.93
59063;BME280;44851;45.648;9.004;2023-02-13T22:06:34;100959.22;;;5.67;50.95
59063;BME280;44851;45.648;9.004;2023-02-13T22:09:04;100961.50;;;5.75;50.64
59063;BME280;44851;45.648;9.004;2023-02-13T22:11:31;100961.22;;;5.60;50.55
59063;BME280;44851;45.648;9.004;2023-02-13T22:13:58;100954.88;;;5.46;50.76
59063;BME280;44851;45.648;9.004;2023-02-13T22:16:27;100951.13;;;5.31;50.80
59063;BME280;44851;45.648;9.004;2023-02-13T22:18:53;100954.03;;;5.45;50.98
59063;BME280;44851;45.648;9.004;2023-02-13T22:21:21;100962.22;;;5.56;50.57
59063;BME280;44851;45.648;9.004;2023-02-13T22:23:47;100957.72;;;5.38;50.11
59063;BME280;44851;45.648;9.004;2023-02-13T22:26:21;100956.72;;;5.42;49.84
59063;BME280;44851;45.648;9.004;2023-02-13T22:28:47;100958.22;;;5.26;50.60
59063;BME280;44851;45.648;9.004;2023-02-13T22:31:12;100953.88;;;5.26;50.50
59063;BME280;44851;45.648;9.004;2023-02-13T22:33:39;100953.16;;;5.23;50.49
59063;BME280;44851;45.648;9.004;2023-02-13T22:36:04;100957.69;;;5.16;51.14
59063;BME280;44851;45.648;9.004;2023-02-13T22:38:31;100941.50;;;5.11;50.84
59063;BME280;44851;45.648;9.004;2023-02-13T22:41:06;100945.06;;;5.08;50.83
59063;BME280;44851;45.648;9.004;2023-02-13T22:43:32;100947.44;;;5.15;50.74
59063;BME280;44851;45.648;9.004;2023-02-13T22:46:07;100943.38;;;5.07;50.33
59063;BME280;44851;45.648;9.004;2023-02-13T22:48:36;100943.38;;;5.07;50.77
59063;BME280;44851;45.648;9.004;2023-02-13T22:51:08;100946.66;;;5.13;50.58
59063;BME280;44851;45.648;9.004;2023-02-13T22:53:34;100951.25;;;5.04;51.11
59063;BME280;44851;45.648;9.004;2023-02-13T22:56:01;100957.41;;;5.00;50.60
59063;BME280;44851;45.648;9.004;2023-02-13T22:58:27;100954.16;;;4.95;50.97
59063;BME280;44851;45.648;9.004;2023-02-13T23:00:52;100947.97;;;4.99;51.03
59063;BME280;44851;45.648;9.004;2023-02-13T23:03:18;100953.97;;;5.01;51.32
59063;BME280;44851;45.648;9.004;2023-02-13T23:05:44;100950.09;;;5.11;50.92
59063;BME280;44851;45.648;9.004;2023-02-13T23:08:09;100949.41;;;5.08;51.07
59063;BME280;44851;45.648;9.004;2023-02-13T23:10:34;100949.00;;;4.95;50.88
59063;BME280;44851;45.648;9.004;2023-02-13T23:13:00;100950.13;;;4.88;51.54
59063;BME280;44851;45.648;9.004;2023-02-13T23:15:26;100945.72;;;4.90;51.45
59063;BME280;44851;45.648;9.004;2023-02-13T23:17:52;100942.38;;;4.88;50.93
59063;BME280;44851;45.648;9.004;2023-02-13T23:20:43;100941.69;;;4.83;51.69
59063;BME280;44851;45.648;9.004;2023-02-13T23:23:09;100933.28;;;5.01;51.32
59063;BME280;44851;45.648;9.004;2023-02-13T23:25:36;100938.31;;;5.04;51.14
59063;BME280;44851;45.648;9.004;2023-02-13T23:28:03;100930.81;;;4.98;50.76
59063;BME280;44851;45.648;9.004;2023-02-13T23:30:28;100930.81;;;4.98;51.18
59063;BME280;44851;45.648;9.004;2023-02-13T23:32:54;100935.19;;;4.96;51.39
59063;BME280;44851;45.648;9.004;2023-02-13T23:35:19;100933.47;;;4.95;51.25
59063;BME280;44851;45.648;9.004;2023-02-13T23:37:45;100926.88;;;4.88;51.28
59063;BME280;44851;45.648;9.004;2023-02-13T23:40:12;100924.13;;;4.69;51.24
59063;BME280;44851;45.648;9.004;2023-02-13T23:42:38;100927.63;;;4.67;51.52
59063;BME280;44851;45.648;9.004;2023-02-13T23:45:04;100927.84;;;4.61;51.24
59063;BME280;44851;45.648;9.004;2023-02-13T23:47:29;100927.25;;;4.52;51.65
59063;BME280;44851;45.648;9.004;2023-02-13T23:49:55;100923.00;;;4.51;50.89
59063;BME280;44851;45.648;9.004;2023-02-13T23:52:20;100921.72;;;4.63;51.63
59063;BME280;44851;45.648;9.004;2023-02-13T23:54:45;100923.53;;;4.61;51.18
59063;BME280;44851;45.648;9.004;2023-02-13T23:57:11;100918.75;;;4.50;51.57
59063;BME280;44851;45.648;9.004;2023-02-13T23:59:37;100916.94;;;4.52;51.64
